Time;durP1;ratioP1;P1;durP2;ratioP2;P2;SDS_P1;SDS_P2;PMS_P1;PMS_P2;Temp;Humidity;BMP_temperature;BMP_pressure;BME280_temperature;BME280_humidity;BME280_pressure;Samples;Min_cycle;Max_cycle;Signal;HPM_P1;HPM_P2
2022/08/30 00:02:59;;;;;;;4.10;0.47;;;17.10;99.90;;;;;;5095124;27;20081;-68
2022/08/30 00:05:25;;;;;;;2.63;0.40;;;17.00;99.90;;;;;;5077851;27;20118;-69
2022/08/30 00:07:52;;;;;;;4.20;0.60;;;17.00;99.90;;;;;;5061621;27;20078;-68
2022/08/30 00:10:18;;;;;;;2.92;0.40;;;17.00;99.90;;;;;;5094253;27;20264;-68
2022/08/30 00:12:43;;;;;;;2.08;0.45;;;16.90;99.90;;;;;;5077932;27;20051;-68
2022/08/30 00:15:12;;;;;;;5.97;0.80;;;16.90;99.90;;;;;;5077416;27;20055;-68
2022/08/30 00:17:39;;;;;;;6.32;0.60;;;16.80;99.90;;;;;;5077482;27;20122;-68
2022/08/30 00:20:07;;;;;;;6.18;0.70;;;16.80;99.90;;;;;;5078058;27;20083;-69
2022/08/30 00:22:32;;;;;;;3.78;0.50;;;16.70;99.90;;;;;;5094751;27;20915;-68
2022/08/30 00:25:02;;;;;;;3.17;1.02;;;16.60;99.90;;;;;;5077118;27;20047;-69
2022/08/30 00:27:29;;;;;;;4.65;0.68;;;16.60;99.90;;;;;;5094593;27;20039;-68
2022/08/30 00:29:55;;;;;;;2.13;0.50;;;16.60;99.90;;;;;;5060487;27;20039;-68
2022/08/30 00:32:21;;;;;;;4.68;0.60;;;16.60;99.90;;;;;;5111444;27;20519;-68
2022/08/30 00:34:49;;;;;;;4.03;0.50;;;16.60;99.90;;;;;;5094011;27;20108;-68
2022/08/30 00:37:14;;;;;;;3.33;0.73;;;16.70;99.90;;;;;;5094454;27;20051;-68
2022/08/30 00:39:41;;;;;;;3.25;0.60;;;16.70;99.90;;;;;;5076885;27;20043;-68
2022/08/30 00:42:08;;;;;;;3.42;0.80;;;16.60;99.90;;;;;;5077093;27;20039;-68
2022/08/30 00:44:34;;;;;;;4.60;0.80;;;16.60;99.90;;;;;;5094178;27;20107;-69
2022/08/30 00:46:59;;;;;;;2.83;0.93;;;16.60;99.90;;;;;;5094230;27;20216;-68
2022/08/30 00:49:27;;;;;;;2.38;1.00;;;16.50;99.90;;;;;;5094807;27;20031;-68
2022/08/30 00:51:53;;;;;;;4.32;1.00;;;16.40;99.90;;;;;;5060228;28;20047;-68
2022/08/30 00:54:18;;;;;;;3.80;0.80;;;16.40;99.90;;;;;;5076679;27;20035;-68
2022/08/30 00:56:46;;;;;;;4.35;1.20;;;16.30;99.90;;;;;;5076589;27;20088;-69
2022/08/30 00:59:13;;;;;;;4.25;1.10;;;16.30;99.90;;;;;;5093573;27;20047;-68
2022/08/30 01:01:39;;;;;;;4.18;1.10;;;16.30;99.90;;;;;;5094096;27;20058;-69
2022/08/30 01:04:07;;;;;;;5.53;0.90;;;16.30;99.90;;;;;;5076651;28;20047;-68
2022/08/30 01:06:34;;;;;;;3.83;0.60;;;16.20;99.90;;;;;;5093325;27;20047;-68
2022/08/30 01:09:01;;;;;;;2.70;0.73;;;16.40;99.90;;;;;;5110930;27;20096;-68
2022/08/30 01:11:27;;;;;;;4.20;0.50;;;16.40;99.90;;;;;;5112297;28;20597;-68
2022/08/30 01:13:55;;;;;;;3.83;0.80;;;16.50;99.90;;;;;;5094365;28;20050;-68
2022/08/30 01:16:22;;;;;;;3.33;0.50;;;16.60;99.90;;;;;;5094840;27;20130;-68
2022/08/30 01:18:49;;;;;;;2.83;0.32;;;16.70;99.90;;;;;;5098494;27;20620;-68
2022/08/30 01:21:26;;;;;;;2.80;0.30;;;16.90;99.90;;;;;;5080798;27;20043;-69
2022/08/30 01:23:55;;;;;;;3.22;0.40;;;17.00;99.90;;;;;;5097758;27;20100;-69
2022/08/30 01:26:21;;;;;;;3.70;0.43;;;16.90;99.90;;;;;;5080389;27;20039;-68
2022/08/30 01:28:52;;;;;;;1.88;0.40;;;17.00;99.90;;;;;;5098458;27;20294;-68
2022/08/30 01:31:18;;;;;;;2.33;0.40;;;16.90;99.90;;;;;;5080578;27;20481;-68
2022/08/30 01:33:44;;;;;;;3.13;0.40;;;16.90;99.90;;;;;;5097418;27;20077;-68
2022/08/30 01:36:12;;;;;;;2.67;0.55;;;16.90;99.90;;;;;;5080520;27;20043;-68
2022/08/30 01:38:48;;;;;;;2.30;0.40;;;16.80;99.90;;;;;;5097556;27;20131;-68
2022/08/30 01:41:19;;;;;;;2.55;0.40;;;16.90;99.90;;;;;;5064248;27;20043;-68
2022/08/30 01:43:45;;;;;;;3.83;0.40;;;16.80;99.90;;;;;;5097512;27;20039;-68
2022/08/30 01:46:13;;;;;;;1.95;0.40;;;16.80;99.90;;;;;;5064095;27;20082;-68
2022/08/30 01:48:40;;;;;;;5.03;0.40;;;16.80;99.90;;;;;;5080283;27;20031;-68
2022/08/30 01:51:10;;;;;;;2.00;0.43;;;16.70;99.90;;;;;;5097628;27;20039;-68
2022/08/30 01:53:36;;;;;;;4.32;0.57;;;16.70;99.90;;;;;;5098137;27;20047;-68
2022/08/30 01:56:02;;;;;;;4.47;0.50;;;16.60;99.90;;;;;;5097072;27;20046;-68
2022/08/30 01:58:28;;;;;;;2.75;0.60;;;16.70;99.90;;;;;;5096869;27;20082;-68
2022/08/30 02:00:54;;;;;;;3.40;0.40;;;16.70;99.90;;;;;;5080338;27;20327;-68
2022/08/30 02:03:19;;;;;;;4.43;0.40;;;16.70;99.90;;;;;;5063285;27;20054;-69
2022/08/30 02:05:45;;;;;;;1.92;0.30;;;16.70;99.90;;;;;;5079827;27;20274;-68
2022/08/30 02:08:10;;;;;;;2.15;0.50;;;16.70;99.90;;;;;;5047023;27;21081;-68
2022/08/30 02:10:36;;;;;;;3.03;0.30;;;16.70;99.90;;;;;;5062728;27;20055;-68
2022/08/30 02:13:02;;;;;;;2.55;0.50;;;16.80;99.90;;;;;;5080149;27;20047;-68
2022/08/30 02:15:28;;;;;;;2.60;0.40;;;16.80;99.90;;;;;;5080286;27;20229;-68
2022/08/30 02:17:53;;;;;;;1.98;0.45;;;16.70;99.90;;;;;;5063180;27;20034;-68
2022/08/30 02:20:19;;;;;;;1.98;0.30;;;16.70;99.90;;;;;;5096910;27;20246;-68
2022/08/30 02:22:46;;;;;;;1.60;0.30;;;16.80;99.90;;;;;;5080786;27;20077;-68
2022/08/30 02:25:12;;;;;;;6.07;0.52;;;16.70;99.90;;;;;;5097129;27;20047;-68
2022/08/30 02:27:38;;;;;;;3.05;0.40;;;16.70;99.90;;;;;;5096585;27;20074;-68
2022/08/30 02:30:06;;;;;;;3.63;0.40;;;16.60;99.90;;;;;;5095507;27;20031;-68
2022/08/30 02:32:31;;;;;;;2.95;0.80;;;16.60;99.90;;;;;;5096628;27;20049;-68
2022/08/30 02:34:57;;;;;;;4.38;0.50;;;16.50;99.90;;;;;;5063028;27;20046;-68
2022/08/30 02:37:23;;;;;;;3.40;0.60;;;16.50;99.90;;;;;;5079749;27;20047;-68
2022/08/30 02:39:49;;;;;;;2.83;0.70;;;16.50;99.90;;;;;;5115577;27;20488;-68
2022/08/30 02:42:14;;;;;;;2.80;0.60;;;16.50;99.90;;;;;;5079478;27;20050;-68
2022/08/30 02:44:40;;;;;;;3.28;0.70;;;16.40;99.90;;;;;;5096564;27;20046;-68
2022/08/30 02:47:06;;;;;;;4.28;0.60;;;16.40;99.90;;;;;;5096585;27;20139;-68
2022/08/30 02:49:31;;;;;;;3.67;0.80;;;16.30;99.90;;;;;;5079221;27;20504;-68
2022/08/30 02:51:57;;;;;;;4.43;0.52;;;16.30;99.90;;;;;;5079989;27;20165;-68
2022/08/30 02:54:23;;;;;;;3.20;0.50;;;16.30;99.90;;;;;;5096711;27;20047;-68
2022/08/30 02:56:50;;;;;;;3.38;0.73;;;16.20;99.90;;;;;;5095850;27;20050;-68
2022/08/30 02:59:17;;;;;;;4.22;0.88;;;16.20;99.90;;;;;;5079453;27;20042;-68
2022/08/30 03:01:43;;;;;;;3.50;0.70;;;16.30;99.90;;;;;;5079135;27;20043;-68
2022/08/30 03:04:09;;;;;;;3.97;0.88;;;16.20;99.90;;;;;;5095497;27;20077;-68
2022/08/30 03:06:34;;;;;;;4.82;0.88;;;16.20;99.90;;;;;;5115784;27;20034;-69
2022/08/30 03:09:01;;;;;;;3.08;1.02;;;16.20;99.90;;;;;;5045983;27;20031;-68
2022/08/30 03:11:27;;;;;;;4.03;0.90;;;16.20;99.90;;;;;;5079283;27;20130;-68
2022/08/30 03:13:52;;;;;;;4.88;0.80;;;16.20;99.90;;;;;;5078899;27;20425;-68
2022/08/30 03:16:20;;;;;;;4.68;0.90;;;16.10;99.90;;;;;;5062138;27;20538;-68
2022/08/30 03:18:46;;;;;;;2.63;0.80;;;16.10;99.90;;;;;;5079324;27;20158;-68
2022/08/30 03:21:14;;;;;;;3.20;0.73;;;16.00;99.90;;;;;;5062665;27;20134;-68
2022/08/30 03:23:41;;;;;;;5.70;0.93;;;16.00;99.90;;;;;;5078957;27;20394;-68
2022/08/30 03:26:10;;;;;;;3.20;0.80;;;16.00;99.90;;;;;;5096221;27;20538;-68
2022/08/30 03:28:36;;;;;;;3.15;0.80;;;16.10;99.90;;;;;;5095799;27;20099;-68
2022/08/30 03:31:02;;;;;;;4.30;0.73;;;16.00;99.90;;;;;;5078786;27;20074;-68
2022/08/30 03:33:28;;;;;;;3.25;0.70;;;16.00;99.90;;;;;;5095354;27;20153;-68
2022/08/30 03:35:54;;;;;;;4.43;0.80;;;16.00;99.90;;;;;;5096056;27;20035;-68
2022/08/30 03:38:20;;;;;;;2.47;0.63;;;16.00;99.90;;;;;;5095529;27;20141;-68
2022/08/30 03:40:45;;;;;;;4.07;0.70;;;16.00;99.90;;;;;;5095299;27;20068;-68
2022/08/30 03:43:11;;;;;;;2.75;0.73;;;16.00;99.90;;;;;;5095407;27;20115;-68
2022/08/30 03:45:38;;;;;;;4.22;0.95;;;16.00;99.90;;;;;;5095183;27;20742;-67
2022/08/30 03:48:03;;;;;;;3.03;0.70;;;16.00;99.90;;;;;;5095341;27;20045;-68
2022/08/30 03:50:29;;;;;;;2.58;1.15;;;16.00;99.90;;;;;;5061727;27;20468;-68
2022/08/30 03:52:56;;;;;;;4.15;1.30;;;15.90;99.90;;;;;;5095536;27;20396;-69
2022/08/30 03:55:23;;;;;;;4.20;0.95;;;15.90;99.90;;;;;;5077779;27;20216;-69
2022/08/30 03:57:48;;;;;;;4.22;0.80;;;15.90;99.90;;;;;;5094961;27;20043;-68
2022/08/30 04:00:17;;;;;;;3.63;1.02;;;15.90;99.90;;;;;;5094509;27;20242;-68
2022/08/30 04:02:43;;;;;;;7.53;0.80;;;15.90;99.90;;;;;;5078096;27;20134;-68
2022/08/30 04:05:10;;;;;;;6.05;1.10;;;15.80;99.90;;;;;;5094735;27;20043;-68
2022/08/30 04:07:36;;;;;;;4.55;0.77;;;15.90;99.90;;;;;;5077813;27;20050;-68
2022/08/30 04:10:04;;;;;;;6.93;1.10;;;15.80;99.90;;;;;;5094382;27;20047;-68
2022/08/30 04:12:29;;;;;;;2.20;0.85;;;15.70;99.90;;;;;;5077469;27;20054;-68
2022/08/30 04:14:55;;;;;;;4.53;1.30;;;15.70;99.90;;;;;;5060859;27;20669;-68
2022/08/30 04:17:20;;;;;;;3.17;1.00;;;15.70;99.90;;;;;;5113314;27;20039;-68
2022/08/30 04:19:46;;;;;;;3.45;1.30;;;15.70;99.90;;;;;;5095003;27;20047;-67
2022/08/30 04:22:12;;;;;;;4.75;1.40;;;15.70;99.90;;;;;;5077905;27;20039;-68
2022/08/30 04:24:40;;;;;;;6.65;1.65;;;15.60;99.90;;;;;;5077831;27;20485;-68
2022/08/30 04:27:06;;;;;;;2.78;1.23;;;15.60;99.90;;;;;;5094529;27;20289;-69
2022/08/30 04:29:32;;;;;;;3.83;1.17;;;15.50;99.90;;;;;;5060435;27;20122;-68
2022/08/30 04:31:58;;;;;;;2.55;0.90;;;15.50;99.90;;;;;;5060326;27;20043;-68
2022/08/30 04:34:23;;;;;;;3.75;1.20;;;15.40;99.90;;;;;;5094078;27;20088;-68
2022/08/30 04:36:49;;;;;;;2.60;1.10;;;15.40;99.90;;;;;;5094500;27;20039;-69
2022/08/30 04:39:16;;;;;;;4.70;1.45;;;15.40;99.90;;;;;;5077528;27;20074;-68
2022/08/30 04:41:42;;;;;;;4.50;1.20;;;15.30;99.90;;;;;;5060280;27;20047;-68
2022/08/30 04:44:07;;;;;;;2.78;1.17;;;15.30;99.90;;;;;;5060187;27;20130;-67
2022/08/30 04:46:34;;;;;;;3.60;1.10;;;15.30;99.90;;;;;;5093822;27;20046;-68
2022/08/30 04:49:01;;;;;;;3.63;1.15;;;15.30;99.90;;;;;;5060286;27;20046;-68
2022/08/30 04:51:27;;;;;;;7.85;1.60;;;15.30;99.90;;;;;;5110578;27;20039;-68
2022/08/30 04:53:52;;;;;;;4.35;1.30;;;15.20;99.90;;;;;;5093602;27;20049;-68
2022/08/30 04:56:21;;;;;;;6.07;1.73;;;15.20;99.90;;;;;;5093749;27;20043;-67
2022/08/30 04:58:48;;;;;;;4.82;1.42;;;15.30;99.90;;;;;;5077096;27;20481;-68
2022/08/30 05:01:19;;;;;;;4.63;1.30;;;15.20;99.90;;;;;;5094177;28;20567;-67
2022/08/30 05:03:46;;;;;;;2.75;1.30;;;15.10;99.90;;;;;;5093838;27;20051;-68
2022/08/30 05:06:13;;;;;;;5.00;1.50;;;15.10;99.90;;;;;;5076689;28;20212;-68
2022/08/30 05:08:39;;;;;;;5.18;1.75;;;15.20;99.90;;;;;;5093862;27;20523;-68
2022/08/30 05:11:06;;;;;;;4.97;1.60;;;15.10;99.90;;;;;;5093210;28;20142;-68
2022/08/30 05:13:33;;;;;;;4.43;2.28;;;15.10;99.90;;;;;;5076505;28;20130;-68
2022/08/30 05:15:59;;;;;;;3.72;1.48;;;15.10;99.90;;;;;;5077100;28;20031;-68
2022/08/30 05:18:25;;;;;;;3.72;1.42;;;15.10;99.90;;;;;;5077382;28;20232;-68
2022/08/30 05:21:28;;;;;;;5.10;1.33;;;15.10;99.90;;;;;;5076598;28;20043;-68
2022/08/30 05:23:58;;;;;;;4.47;1.42;;;15.00;99.90;;;;;;5073156;28;20047;-68
2022/08/30 05:26:28;;;;;;;5.35;0.95;;;15.10;99.90;;;;;;5076164;28;20100;-68
2022/08/30 05:28:54;;;;;;;4.13;0.98;;;15.00;99.90;;;;;;5093828;28;20409;-68
2022/08/30 05:31:24;;;;;;;3.60;0.80;;;15.10;99.90;;;;;;5060308;28;20787;-68
2022/08/30 05:33:52;;;;;;;3.00;0.63;;;15.10;99.90;;;;;;5093439;28;20048;-68
2022/08/30 05:36:19;;;;;;;3.28;0.77;;;15.10;99.90;;;;;;5093891;28;20423;-68
2022/08/30 05:38:45;;;;;;;5.28;0.70;;;15.10;99.90;;;;;;5092597;28;20051;-67
2022/08/30 05:41:12;;;;;;;4.20;0.80;;;15.10;99.90;;;;;;5093158;28;20081;-68
2022/08/30 05:43:38;;;;;;;3.80;0.70;;;15.10;99.90;;;;;;5076722;28;20051;-68
2022/08/30 05:46:11;;;;;;;4.25;0.80;;;15.20;99.90;;;;;;5092915;28;20039;-68
2022/08/30 05:48:37;;;;;;;3.07;0.60;;;15.30;99.90;;;;;;5093948;28;20082;-68
2022/08/30 05:51:04;;;;;;;2.65;0.63;;;15.50;99.90;;;;;;5076091;28;20291;-68
2022/08/30 05:53:30;;;;;;;4.00;0.88;;;15.80;99.90;;;;;;5075943;28;20043;-68
2022/08/30 05:55:56;;;;;;;2.60;0.50;;;16.10;99.90;;;;;;5060142;28;21066;-68
2022/08/30 05:58:22;;;;;;;3.42;0.70;;;16.30;99.90;;;;;;5076125;28;20050;-68
2022/08/30 06:00:48;;;;;;;1.30;0.50;;;16.60;99.90;;;;;;5078455;28;20133;-67
2022/08/30 06:03:13;;;;;;;2.92;0.60;;;17.00;99.90;;;;;;5097987;27;20039;-68
2022/08/30 06:05:39;;;;;;;2.83;0.60;;;17.30;99.90;;;;;;5084633;27;20047;-69
2022/08/30 06:08:05;;;;;;;2.45;0.75;;;17.50;99.90;;;;;;5083007;27;20043;-69
2022/08/30 06:10:30;;;;;;;2.80;0.60;;;17.80;99.90;;;;;;5081919;27;20244;-69
2022/08/30 06:12:57;;;;;;;3.00;0.50;;;17.90;99.90;;;;;;5082857;27;20171;-69
2022/08/30 06:15:23;;;;;;;4.28;0.57;;;18.10;99.90;;;;;;5082546;27;20532;-69
2022/08/30 06:17:49;;;;;;;2.47;0.47;;;18.20;99.90;;;;;;5099667;27;20069;-69
2022/08/30 06:20:17;;;;;;;4.72;0.50;;;18.40;99.90;;;;;;5100335;27;20362;-69
2022/08/30 06:22:43;;;;;;;1.65;0.40;;;18.40;99.90;;;;;;5098739;27;20476;-69
2022/08/30 06:25:09;;;;;;;1.98;0.60;;;18.50;99.90;;;;;;5099110;27;20042;-69
2022/08/30 06:27:35;;;;;;;2.70;0.45;;;18.50;99.90;;;;;;5099597;27;20412;-69
2022/08/30 06:30:00;;;;;;;3.05;0.38;;;18.60;99.90;;;;;;5066165;27;20035;-69
2022/08/30 06:32:26;;;;;;;2.90;0.50;;;18.80;99.90;;;;;;5100075;27;20043;-69
2022/08/30 06:34:52;;;;;;;1.42;0.30;;;18.90;99.90;;;;;;5082835;27;20078;-69
2022/08/30 06:37:18;;;;;;;1.58;0.40;;;19.00;99.90;;;;;;5065075;27;20062;-69
2022/08/30 06:39:43;;;;;;;2.88;0.40;;;19.10;99.90;;;;;;5099768;27;20045;-69
2022/08/30 06:42:09;;;;;;;2.28;0.40;;;19.20;99.90;;;;;;5083942;27;20409;-69
2022/08/30 06:44:34;;;;;;;2.58;0.30;;;19.30;99.90;;;;;;5100621;27;20639;-69
2022/08/30 06:47:00;;;;;;;2.42;0.47;;;19.50;99.90;;;;;;5099858;27;20460;-69
2022/08/30 06:49:26;;;;;;;2.35;0.50;;;19.60;99.90;;;;;;5101141;27;20085;-69
2022/08/30 06:51:52;;;;;;;1.83;0.40;;;19.60;99.90;;;;;;5100170;27;20050;-69
2022/08/30 06:54:18;;;;;;;2.33;0.40;;;19.80;99.90;;;;;;5081650;27;20713;-69
2022/08/30 06:56:45;;;;;;;3.42;0.55;;;19.80;99.90;;;;;;5082235;27;20313;-69
2022/08/30 06:59:10;;;;;;;3.05;0.50;;;20.00;99.90;;;;;;5065475;27;20164;-69
2022/08/30 07:01:36;;;;;;;1.98;0.25;;;20.10;99.90;;;;;;5099747;27;20416;-69
2022/08/30 07:04:02;;;;;;;2.30;0.40;;;20.20;99.90;;;;;;5099960;27;20035;-69
2022/08/30 07:06:28;;;;;;;1.88;0.30;;;20.50;99.90;;;;;;5081949;27;20035;-69
2022/08/30 07:08:54;;;;;;;1.30;0.30;;;20.60;99.90;;;;;;5081745;27;20071;-67
2022/08/30 07:11:27;;;;;;;3.20;0.38;;;20.60;99.90;;;;;;5097782;27;20316;-69
2022/08/30 07:13:53;;;;;;;0.98;0.30;;;20.80;99.90;;;;;;5098064;27;20051;-69
2022/08/30 07:16:19;;;;;;;1.58;0.35;;;20.80;99.90;;;;;;5064449;27;20035;-69
2022/08/30 07:18:50;;;;;;;1.38;0.30;;;21.00;99.90;;;;;;5098900;27;20499;-68
2022/08/30 07:21:35;;;;;;;1.40;0.30;;;21.00;99.90;;;;;;5082353;27;20043;-68
2022/08/30 07:24:03;;;;;;;1.58;0.30;;;21.20;99.90;;;;;;5097156;27;20354;-69
2022/08/30 07:26:34;;;;;;;2.80;0.50;;;21.00;99.90;;;;;;5080524;27;20051;-69
2022/08/30 07:29:02;;;;;;;1.00;0.30;;;21.30;99.90;;;;;;5096874;27;20137;-69
2022/08/30 07:31:28;;;;;;;2.88;0.30;;;21.30;99.90;;;;;;5097303;27;20245;-68
2022/08/30 07:33:54;;;;;;;1.88;0.20;;;21.50;99.90;;;;;;5096577;27;20342;-68
2022/08/30 07:36:20;;;;;;;1.00;0.20;;;21.60;99.90;;;;;;5097162;27;20054;-68
2022/08/30 07:38:47;;;;;;;1.75;0.22;;;21.70;99.90;;;;;;5096724;27;20241;-68
2022/08/30 07:41:25;;;;;;;0.98;0.20;;;21.70;99.90;;;;;;5080433;27;20104;-67
2022/08/30 07:43:52;;;;;;;1.45;0.30;;;21.80;99.90;;;;;;5096054;27;20047;-67
2022/08/30 07:46:18;;;;;;;1.42;0.30;;;21.90;99.90;;;;;;5096040;27;20462;-70
2022/08/30 07:48:44;;;;;;;1.58;0.50;;;22.00;99.90;;;;;;5079273;27;20039;-68
2022/08/30 07:51:17;;;;;;;2.58;0.30;;;22.00;99.90;;;;;;5096868;27;20183;-68
2022/08/30 07:53:42;;;;;;;1.90;0.20;;;22.10;99.90;;;;;;5096798;27;20377;-69
2022/08/30 07:56:08;;;;;;;1.25;0.20;;;22.10;99.90;;;;;;5096842;27;20047;-69
2022/08/30 07:58:36;;;;;;;1.65;0.22;;;22.30;99.90;;;;;;5097333;27;20329;-69
2022/08/30 08:01:04;;;;;;;1.33;0.20;;;22.20;99.90;;;;;;5080307;27;20259;-69
2022/08/30 08:03:29;;;;;;;1.88;0.25;;;22.40;99.90;;;;;;5097437;27;20719;-69
2022/08/30 08:05:56;;;;;;;3.15;0.30;;;22.30;99.90;;;;;;5080973;27;20046;-69
2022/08/30 08:08:23;;;;;;;2.75;0.20;;;22.40;99.90;;;;;;5081254;27;20035;-68
2022/08/30 08:10:49;;;;;;;1.85;0.50;;;22.60;99.90;;;;;;5093107;28;20123;-68
2022/08/30 08:13:15;;;;;;;1.92;0.50;;;22.50;99.90;;;;;;5093739;28;20437;-69
2022/08/30 08:15:41;;;;;;;0.52;0.20;;;22.50;99.90;;;;;;5077690;28;20250;-68
2022/08/30 08:18:07;;;;;;;0.52;0.13;;;22.10;99.90;;;;;;5094425;28;20055;-68
2022/08/30 08:20:34;;;;;;;0.85;0.20;;;21.90;99.90;;;;;;5094450;28;20039;-69
2022/08/30 08:23:00;;;;;;;4.80;0.30;;;22.00;99.90;;;;;;5094768;28;20050;-68
2022/08/30 08:25:26;;;;;;;1.83;0.35;;;21.80;99.90;;;;;;5060745;28;20457;-68
2022/08/30 08:27:52;;;;;;;2.53;0.30;;;21.20;99.90;;;;;;5093408;28;20051;-69
2022/08/30 08:30:19;;;;;;;3.47;0.35;;;20.80;99.90;;;;;;5093697;28;20059;-69
2022/08/30 08:32:45;;;;;;;2.25;0.40;;;20.70;99.90;;;;;;5094236;28;20035;-69
2022/08/30 08:35:11;;;;;;;1.60;0.20;;;20.30;99.90;;;;;;5094572;28;20043;-69
2022/08/30 08:37:38;;;;;;;3.25;0.28;;;20.00;99.90;;;;;;5094415;28;20047;-69
2022/08/30 08:40:06;;;;;;;1.88;0.20;;;20.00;99.90;;;;;;5093876;28;20048;-69
2022/08/30 08:42:51;;;;;;;1.85;0.30;;;19.90;99.90;;;;;;5076097;28;20502;-69
2022/08/30 08:45:29;;;;;;;2.30;0.40;;;19.50;99.90;;;;;;5095017;28;20062;-69
2022/08/30 08:47:58;;;;;;;1.40;0.50;;;19.70;99.90;;;;;;5094756;28;20342;-69
2022/08/30 08:50:24;;;;;;;2.30;0.40;;;19.80;99.90;;;;;;5094112;28;20075;-69
2022/08/30 08:53:34;;;;;;;1.90;0.30;;;19.80;99.90;;;;;;5077104;28;20043;-69
2022/08/30 08:56:02;;;;;;;4.30;0.35;;;19.70;99.90;;;;;;5093984;28;20047;-68
2022/08/30 08:58:32;;;;;;;1.00;0.22;;;20.50;99.90;;;;;;5077191;28;20044;-69
2022/08/30 09:00:58;;;;;;;2.55;0.28;;;21.50;99.90;;;;;;5094670;28;20046;-69
2022/08/30 09:03:27;;;;;;;1.90;0.30;;;21.90;99.90;;;;;;5093742;28;20039;-69
2022/08/30 09:05:54;;;;;;;1.30;0.30;;;22.40;99.90;;;;;;5076774;28;20074;-70
2022/08/30 09:08:22;;;;;;;3.63;0.30;;;22.90;99.90;;;;;;5094073;28;20456;-68
2022/08/30 09:11:05;;;;;;;1.02;0.30;;;23.30;99.90;;;;;;5092537;28;20113;-69
2022/08/30 09:13:32;;;;;;;1.58;0.30;;;23.80;99.90;;;;;;5093995;28;20560;-68
2022/08/30 09:15:58;;;;;;;2.20;0.40;;;24.10;99.90;;;;;;5094329;28;20047;-69
2022/08/30 09:18:46;;;;;;;2.38;0.30;;;24.40;99.90;;;;;;5093998;28;20422;-68
2022/08/30 09:21:13;;;;;;;2.20;0.25;;;24.70;98.00;;;;;;5076991;28;20138;-69
2022/08/30 09:23:55;;;;;;;3.92;0.30;;;24.60;97.30;;;;;;5093367;28;20036;-69
2022/08/30 09:26:37;;;;;;;1.25;0.30;;;24.40;97.20;;;;;;5093008;28;20291;-68
2022/08/30 09:29:04;;;;;;;1.20;0.30;;;24.10;98.60;;;;;;5076273;28;20185;-68
2022/08/30 09:31:33;;;;;;;3.08;0.30;;;23.50;98.40;;;;;;5092761;28;20075;-68
2022/08/30 09:34:08;;;;;;;1.98;0.20;;;22.80;98.00;;;;;;5058822;28;20123;-68
2022/08/30 09:36:42;;;;;;;1.10;0.20;;;22.80;98.70;;;;;;5092199;28;20324;-68
2022/08/30 09:39:46;;;;;;;2.15;0.22;;;23.30;96.30;;;;;;5096435;28;20043;-68
2022/08/30 09:42:22;;;;;;;2.08;0.20;;;23.80;95.00;;;;;;5022008;28;20856;-68
2022/08/30 09:44:48;;;;;;;1.15;0.40;;;23.70;94.50;;;;;;5021402;28;20133;-69
2022/08/30 09:47:27;;;;;;;1.60;0.20;;;23.80;96.60;;;;;;5068209;28;20177;-69
2022/08/30 09:50:22;;;;;;;2.08;0.20;;;24.30;96.70;;;;;;5080611;28;20461;-68
2022/08/30 09:53:17;;;;;;;3.75;0.20;;;24.90;92.50;;;;;;5096410;28;20051;-68
2022/08/30 09:55:51;;;;;;;1.40;0.20;;;25.30;90.80;;;;;;5079319;28;20057;-69
2022/08/30 09:58:55;;;;;;;1.25;0.20;;;25.60;89.70;;;;;;5097079;28;20053;-68
2022/08/30 10:01:29;;;;;;;1.95;0.20;;;25.70;82.70;;;;;;5074668;28;20130;-68
2022/08/30 10:03:59;;;;;;;0.70;0.20;;;25.80;77.90;;;;;;5096499;28;20043;-69
2022/08/30 10:06:43;;;;;;;0.95;0.20;;;26.00;77.10;;;;;;5096930;28;20042;-68
2022/08/30 10:09:41;;;;;;;1.52;0.20;;;25.90;79.20;;;;;;5097685;28;20067;-68
2022/08/30 10:12:17;;;;;;;0.70;0.20;;;26.00;79.20;;;;;;5097551;28;20642;-68
2022/08/30 10:14:59;;;;;;;1.15;0.20;;;25.90;77.50;;;;;;5096957;28;20147;-69
2022/08/30 10:17:39;;;;;;;1.95;0.20;;;25.90;76.70;;;;;;5097352;28;20043;-69
2022/08/30 10:20:12;;;;;;;1.30;0.20;;;25.80;76.20;;;;;;5080095;28;20675;-68
2022/08/30 10:23:13;;;;;;;1.88;0.20;;;26.10;73.60;;;;;;5097551;28;20667;-68
2022/08/30 10:25:53;;;;;;;0.63;0.15;;;25.70;69.10;;;;;;5075379;28;20043;-69
2022/08/30 10:28:31;;;;;;;2.25;0.20;;;25.40;69.60;;;;;;5095944;28;20046;-69
2022/08/30 10:31:06;;;;;;;3.45;0.20;;;25.70;69.70;;;;;;5079672;28;20104;-69
2022/08/30 10:33:41;;;;;;;1.85;0.30;;;25.00;71.20;;;;;;5079704;28;20715;-69
2022/08/30 10:36:11;;;;;;;1.90;0.38;;;24.90;74.10;;;;;;5096632;28;20427;-68
2022/08/30 10:38:48;;;;;;;1.83;0.30;;;24.50;75.10;;;;;;5095956;28;20084;-69
2022/08/30 10:41:35;;;;;;;2.55;0.35;;;24.80;74.80;;;;;;5096350;28;20489;-68
2022/08/30 10:44:26;;;;;;;2.72;0.20;;;25.00;76.00;;;;;;5095657;28;20051;-69
2022/08/30 10:47:17;;;;;;;1.00;0.20;;;24.90;76.80;;;;;;5096004;28;20305;-68
2022/08/30 10:49:48;;;;;;;2.30;0.20;;;25.20;78.90;;;;;;5078350;28;20040;-69
2022/08/30 10:52:36;;;;;;;0.80;0.20;;;25.70;71.30;;;;;;5096353;28;20047;-69
2022/08/30 10:55:10;;;;;;;0.80;0.20;;;26.40;68.10;;;;;;5095957;28;20051;-69
2022/08/30 10:57:37;;;;;;;1.25;0.30;;;26.70;66.90;;;;;;5062838;28;20048;-69
2022/08/30 11:00:10;;;;;;;1.35;0.20;;;27.10;64.60;;;;;;5095591;28;20062;-68
2022/08/30 11:02:54;;;;;;;1.05;0.20;;;27.30;58.80;;;;;;5096566;28;20040;-68
2022/08/30 11:05:58;;;;;;;1.10;0.20;;;27.30;60.80;;;;;;5094933;28;20039;-69
2022/08/30 11:08:54;;;;;;;2.60;0.30;;;27.50;59.80;;;;;;5069982;28;20044;-68
2022/08/30 11:11:43;;;;;;;1.70;0.20;;;26.90;60.20;;;;;;5095550;28;20151;-68
2022/08/30 11:14:14;;;;;;;0.40;0.10;;;26.00;60.20;;;;;;5077846;28;20235;-68
2022/08/30 11:16:42;;;;;;;1.70;0.20;;;25.60;63.90;;;;;;5079140;28;20765;-69
2022/08/30 11:19:20;;;;;;;2.15;0.20;;;26.00;65.70;;;;;;5097032;28;20114;-69
2022/08/30 11:21:46;;;;;;;1.08;0.20;;;26.20;63.30;;;;;;5078451;28;20616;-68
2022/08/30 11:24:23;;;;;;;1.52;0.22;;;27.00;62.00;;;;;;5096140;28;20486;-68
2022/08/30 11:26:53;;;;;;;0.85;0.20;;;27.20;59.60;;;;;;5096025;28;20383;-69
2022/08/30 11:29:28;;;;;;;1.20;0.20;;;27.30;60.20;;;;;;5060841;28;20031;-68
2022/08/30 11:31:56;;;;;;;1.27;0.17;;;27.20;56.10;;;;;;5095850;28;20047;-69
2022/08/30 11:34:44;;;;;;;1.75;0.20;;;27.50;54.70;;;;;;5095730;28;20621;-69
2022/08/30 11:37:30;;;;;;;1.50;0.20;;;28.10;50.00;;;;;;5078224;28;20095;-69
2022/08/30 11:39:58;;;;;;;0.65;0.20;;;28.00;52.70;;;;;;5095199;28;20040;-69
2022/08/30 11:42:26;;;;;;;1.13;0.20;;;28.30;52.90;;;;;;5094362;28;20051;-70
2022/08/30 11:44:51;;;;;;;0.68;0.13;;;28.10;51.50;;;;;;5091765;28;20544;-71
2022/08/30 11:47:43;;;;;;;1.17;0.20;;;28.20;51.80;;;;;;5074997;28;20042;-70
2022/08/30 11:50:18;;;;;;;0.88;0.10;;;28.30;52.10;;;;;;5074421;28;20042;-71
2022/08/30 11:52:58;;;;;;;0.65;0.17;;;28.30;51.10;;;;;;5091871;28;20051;-71
2022/08/30 11:55:51;;;;;;;2.50;0.20;;;28.40;52.10;;;;;;5092201;28;20093;-70
2022/08/30 11:58:41;;;;;;;1.75;0.20;;;28.50;48.80;;;;;;5091233;28;20620;-71
2022/08/30 12:01:32;;;;;;;1.00;0.20;;;28.50;46.50;;;;;;5092093;28;20078;-71
2022/08/30 12:04:27;;;;;;;0.77;0.10;;;28.20;46.20;;;;;;5092448;28;20048;-71
2022/08/30 12:07:04;;;;;;;0.60;0.10;;;28.50;48.50;;;;;;5091793;28;20678;-71
2022/08/30 12:09:31;;;;;;;0.68;0.20;;;28.70;47.80;;;;;;5093938;27;20150;-71
2022/08/30 12:12:10;;;;;;;1.02;0.20;;;28.80;48.00;;;;;;5077761;27;20313;-71
2022/08/30 12:14:50;;;;;;;3.13;0.22;;;29.10;49.70;;;;;;5077940;27;20504;-71
2022/08/30 12:20:42;;;;;;;0.57;0.10;;;29.30;47.80;;;;;;5095033;27;20419;-71
2022/08/30 12:23:16;;;;;;;1.48;0.20;;;28.40;46.00;;;;;;5094428;27;20055;-69
2022/08/30 12:25:42;;;;;;;1.67;0.20;;;27.60;48.00;;;;;;5094338;27;20049;-69
2022/08/30 12:28:12;;;;;;;0.77;0.15;;;27.20;49.10;;;;;;5095131;27;20896;-69
2022/08/30 12:30:39;;;;;;;1.25;0.10;;;27.40;51.40;;;;;;5077191;27;20071;-70
2022/08/30 12:33:05;;;;;;;1.75;0.10;;;28.10;52.20;;;;;;5060752;27;20142;-69
2022/08/30 12:35:32;;;;;;;0.57;0.13;;;28.30;51.00;;;;;;5077261;27;20378;-69
2022/08/30 12:38:05;;;;;;;1.27;0.10;;;28.80;48.50;;;;;;5060388;27;20049;-69
2022/08/30 12:40:33;;;;;;;1.15;0.13;;;29.20;46.10;;;;;;5094437;27;20250;-69
2022/08/30 12:43:03;;;;;;;2.13;0.20;;;29.70;43.60;;;;;;5060583;27;20110;-69
2022/08/30 12:45:44;;;;;;;3.22;0.20;;;29.50;41.40;;;;;;5094077;27;20039;-70
2022/08/30 12:48:13;;;;;;;1.13;0.13;;;29.10;44.00;;;;;;5112649;27;20339;-70
2022/08/30 12:50:52;;;;;;;0.30;0.10;;;29.30;42.80;;;;;;5094478;27;20047;-69
2022/08/30 12:53:45;;;;;;;0.95;0.10;;;28.50;45.30;;;;;;5077185;27;20110;-69
2022/08/30 12:56:14;;;;;;;1.38;0.10;;;28.40;45.80;;;;;;5094576;27;20047;-70
2022/08/30 12:58:44;;;;;;;0.55;0.10;;;28.70;44.30;;;;;;5077096;27;20170;-69
2022/08/30 13:01:31;;;;;;;1.13;0.10;;;28.90;45.70;;;;;;5093938;27;20583;-70
2022/08/30 13:04:25;;;;;;;1.45;0.10;;;29.10;45.60;;;;;;5093524;27;20304;-69
2022/08/30 13:06:57;;;;;;;0.93;0.13;;;29.20;41.50;;;;;;5076981;27;20070;-69
2022/08/30 13:09:29;;;;;;;1.20;0.13;;;29.10;40.90;;;;;;5093795;27;20039;-69